Time;durP1;ratioP1;P1;durP2;ratioP2;P2;SDS_P1;SDS_P2;PMS_P1;PMS_P2;Temp;Humidity;BMP_temperature;BMP_pressure;BME280_temperature;BME280_humidity;BME280_pressure;Samples;Min_cycle;Max_cycle;Signal;HPM_P1;HPM_P2
2021/06/07 00:00:34;;;;;;;4.03;3.63;;;;;;;17.73;57.21;102072.66;6241298;28;20193;-76
2021/06/07 00:03:39;;;;;;;3.90;3.80;;;;;;;17.77;57.42;102068.34;6241354;28;20192;-76
2021/06/07 00:06:43;;;;;;;4.00;3.80;;;;;;;17.76;56.60;102061.97;6240134;28;20244;-76
2021/06/07 00:09:47;;;;;;;3.85;3.72;;;;;;;17.70;56.95;102059.31;6241075;28;20192;-76
2021/06/07 00:12:51;;;;;;;4.15;3.95;;;;;;;17.72;57.53;102057.19;6241414;28;20216;-76
2021/06/07 00:15:56;;;;;;;4.18;3.88;;;;;;;17.68;56.61;102062.31;6241026;28;20277;-76
2021/06/07 00:19:01;;;;;;;3.90;3.60;;;;;;;17.73;57.53;102067.97;6240932;28;20193;-76
2021/06/07 00:22:06;;;;;;;3.53;3.42;;;;;;;17.66;56.94;102055.34;6239906;28;20414;-76
2021/06/07 00:25:11;;;;;;;4.10;3.92;;;;;;;17.65;57.93;102070.22;6241096;28;20224;-76
2021/06/07 00:28:15;;;;;;;4.47;4.28;;;;;;;17.63;56.49;102078.72;6240658;28;20205;-76
2021/06/07 00:31:19;;;;;;;3.70;3.42;;;;;;;17.59;56.48;102076.69;6239419;28;20476;-76
2021/06/07 00:34:26;;;;;;;4.22;3.92;;;;;;;17.57;56.67;102074.13;6239689;28;20244;-76
2021/06/07 00:37:30;;;;;;;4.30;3.92;;;;;;;17.46;57.51;102083.19;6240387;28;20256;-76
2021/06/07 00:40:35;;;;;;;6.65;4.00;;;;;;;17.35;58.15;102076.53;6239274;28;20491;-76
2021/06/07 00:43:39;;;;;;;3.72;3.63;;;;;;;17.31;57.88;102080.81;6240441;28;20185;-76
2021/06/07 00:46:42;;;;;;;3.90;3.70;;;;;;;17.24;58.02;102058.00;6239227;28;20333;-76
2021/06/07 00:49:47;;;;;;;4.38;4.07;;;;;;;17.26;58.19;102075.16;6240876;28;20186;-76
2021/06/07 00:53:02;;;;;;;4.68;4.32;;;;;;;17.17;58.60;102068.28;6240047;28;20217;-75
2021/06/07 00:56:08;;;;;;;5.50;3.95;;;;;;;17.12;59.12;102070.88;6238932;28;20217;-76
2021/06/07 00:59:14;;;;;;;4.40;4.10;;;;;;;17.07;58.96;102056.94;6238907;28;20346;-76
2021/06/07 01:02:17;;;;;;;4.25;3.70;;;;;;;17.03;59.37;102061.22;6238996;28;20185;-76
2021/06/07 01:05:23;;;;;;;4.50;4.07;;;;;;;16.95;60.18;102063.47;6240165;28;20186;-76
2021/06/07 01:08:28;;;;;;;4.13;3.83;;;;;;;16.88;61.07;102069.03;6238778;28;20208;-76
2021/06/07 01:11:34;;;;;;;4.22;3.97;;;;;;;16.87;60.56;102057.16;6239856;28;20185;-76
2021/06/07 01:14:37;;;;;;;4.43;4.22;;;;;;;17.02;60.38;102065.06;6238551;28;20201;-76
2021/06/07 01:17:41;;;;;;;4.40;4.03;;;;;;;16.97;59.99;102064.06;6239483;28;20213;-76
2021/06/07 01:20:47;;;;;;;4.55;3.70;;;;;;;16.96;60.14;102065.97;6239342;28;20189;-76
2021/06/07 01:23:54;;;;;;;4.18;4.07;;;;;;;16.90;60.04;102061.38;6238364;28;20531;-76
2021/06/07 01:26:58;;;;;;;3.85;3.75;;;;;;;16.82;60.19;102058.91;6239412;28;20228;-76
2021/06/07 01:30:06;;;;;;;4.15;3.90;;;;;;;16.77;60.45;102067.88;6239531;28;20224;-76
2021/06/07 01:33:16;;;;;;;4.05;3.85;;;;;;;16.75;60.40;102059.00;6237885;28;20421;-76
2021/06/07 01:36:19;;;;;;;4.00;3.80;;;;;;;16.73;59.76;102058.41;6238929;28;20241;-76
2021/06/07 01:39:27;;;;;;;3.80;3.60;;;;;;;16.77;59.93;102058.75;6237986;28;20472;-76
2021/06/07 01:42:31;;;;;;;4.00;3.80;;;;;;;16.77;59.72;102056.00;6238322;28;20189;-76
2021/06/07 01:45:36;;;;;;;4.07;3.78;;;;;;;16.81;59.14;102057.25;6237932;28;20193;-76
2021/06/07 01:48:40;;;;;;;3.78;3.75;;;;;;;16.80;59.59;102050.03;6238148;28;20240;-76
2021/06/07 01:51:44;;;;;;;3.65;3.55;;;;;;;16.70;59.57;102055.25;6238791;28;20189;-76
2021/06/07 01:54:50;;;;;;;4.30;3.90;;;;;;;16.83;59.34;102060.59;6253385;28;20502;-76
2021/06/07 01:57:54;;;;;;;4.15;3.95;;;;;;;16.81;59.01;102060.84;6238909;28;20209;-76
2021/06/07 02:01:02;;;;;;;5.68;3.80;;;;;;;16.75;58.46;102047.13;6238911;28;20197;-76
2021/06/07 02:04:05;;;;;;;4.13;3.97;;;;;;;16.82;58.31;102057.00;6237511;28;20441;-76
2021/06/07 02:07:09;;;;;;;3.97;3.72;;;;;;;16.81;57.77;102046.22;6238851;28;20189;-76
2021/06/07 02:10:16;;;;;;;4.22;4.10;;;;;;;16.95;57.00;102047.75;6238823;28;20208;-76
2021/06/07 02:13:20;;;;;;;3.72;3.60;;;;;;;16.84;58.60;102045.78;6237393;28;20381;-77
2021/06/07 02:16:26;;;;;;;4.68;3.70;;;;;;;16.83;58.52;102044.06;6238568;28;20209;-76
2021/06/07 02:19:30;;;;;;;4.72;3.58;;;;;;;16.94;57.85;102045.22;6237366;28;20247;-76
2021/06/07 02:22:35;;;;;;;3.85;3.50;;;;;;;16.89;57.10;102045.94;6237212;28;20240;-77
2021/06/07 02:25:40;;;;;;;3.75;3.60;;;;;;;16.97;56.82;102040.09;6238570;28;20185;-77
2021/06/07 02:28:47;;;;;;;5.68;3.97;;;;;;;16.99;56.11;102043.47;6237561;28;20277;-76
2021/06/07 02:31:50;;;;;;;4.05;3.63;;;;;;;16.98;56.14;102041.78;6237106;28;20417;-76
2021/06/07 02:34:54;;;;;;;4.13;3.92;;;;;;;16.95;55.96;102047.75;6238746;28;20228;-76
2021/06/07 02:37:59;;;;;;;4.25;3.63;;;;;;;16.95;57.17;102046.94;6238159;28;20213;-76
2021/06/07 02:41:04;;;;;;;5.95;4.07;;;;;;;16.91;56.37;102030.00;6238325;28;20224;-76
2021/06/07 02:44:10;;;;;;;4.82;4.57;;;;;;;16.91;56.87;102035.50;6237927;28;20193;-76
2021/06/07 02:47:15;;;;;;;9.02;4.43;;;;;;;16.78;57.31;102014.44;6237957;28;20196;-77
2021/06/07 02:50:22;;;;;;;10.27;4.07;;;;;;;16.86;57.48;102038.09;6236857;28;20356;-76
2021/06/07 02:53:26;;;;;;;6.30;3.78;;;;;;;16.87;57.97;102039.81;6237759;28;20232;-76
2021/06/07 02:56:31;;;;;;;5.47;3.60;;;;;;;16.87;57.39;102028.78;6240223;28;20263;-76
2021/06/07 02:59:34;;;;;;;4.30;4.00;;;;;;;16.97;57.76;102045.63;6243200;28;20223;-76
2021/06/07 03:02:41;;;;;;;4.88;4.40;;;;;;;16.97;59.94;102034.59;6241991;28;20185;-77
2021/06/07 03:05:46;;;;;;;6.38;3.75;;;;;;;16.83;59.40;102042.16;6241548;28;20261;-77
2021/06/07 03:08:49;;;;;;;3.78;3.55;;;;;;;17.02;59.31;102042.16;6241512;28;20486;-76
2021/06/07 03:11:54;;;;;;;4.35;3.97;;;;;;;17.05;58.43;102031.50;6242534;28;20190;-77
2021/06/07 03:14:58;;;;;;;5.32;3.70;;;;;;;17.06;58.87;102030.44;6241545;28;20382;-76
2021/06/07 03:18:02;;;;;;;4.43;4.07;;;;;;;17.02;59.65;102020.09;6241207;28;20241;-76
2021/06/07 03:21:06;;;;;;;4.38;3.88;;;;;;;17.02;60.06;102029.22;6242451;28;20218;-77
2021/06/07 03:24:11;;;;;;;4.43;4.10;;;;;;;17.00;60.09;102025.84;6241224;28;20382;-76
2021/06/07 03:27:17;;;;;;;4.60;3.90;;;;;;;17.11;59.18;102024.22;6242044;28;20194;-76
2021/06/07 03:30:21;;;;;;;4.10;3.92;;;;;;;17.12;60.28;102026.75;6242052;28;20219;-76
2021/06/07 03:33:25;;;;;;;3.80;3.58;;;;;;;17.17;59.34;102029.66;6240675;28;20251;-76
2021/06/07 03:36:31;;;;;;;9.45;3.88;;;;;;;17.25;59.86;102026.59;6242062;28;20260;-76
2021/06/07 03:39:35;;;;;;;3.72;3.42;;;;;;;17.21;60.44;102019.84;6242193;28;20296;-76
2021/06/07 03:42:40;;;;;;;9.00;3.72;;;;;;;17.36;58.84;102034.06;6240707;28;20476;-76
2021/06/07 03:45:44;;;;;;;4.10;3.90;;;;;;;17.39;58.87;102024.47;6240641;28;20185;-76
2021/06/07 03:48:48;;;;;;;4.20;3.83;;;;;;;17.38;60.41;102026.38;6241595;28;20268;-76
2021/06/07 03:51:52;;;;;;;6.57;4.22;;;;;;;17.41;60.88;102030.63;6241859;28;20224;-76
2021/06/07 03:54:56;;;;;;;7.47;4.03;;;;;;;17.37;59.96;102030.25;6240499;28;20381;-76
2021/06/07 03:58:00;;;;;;;12.85;4.18;;;;;;;17.44;62.04;102033.75;6240225;28;20585;-76
2021/06/07 04:01:04;;;;;;;8.43;4.07;;;;;;;17.46;59.66;102028.81;6241202;28;20186;-76
2021/06/07 04:04:08;;;;;;;4.05;3.80;;;;;;;17.49;61.04;102028.38;6241462;28;20193;-76
2021/06/07 04:07:13;;;;;;;3.95;3.83;;;;;;;17.61;61.83;102031.22;6239563;28;20387;-76
2021/06/07 04:10:19;;;;;;;13.60;4.32;;;;;;;17.54;63.23;102021.34;6241205;28;20185;-76
2021/06/07 04:13:24;;;;;;;8.85;4.35;;;;;;;17.62;63.54;102021.00;6240935;28;20217;-76
2021/06/07 04:16:28;;;;;;;11.85;4.15;;;;;;;17.63;62.44;102028.22;6240875;28;20253;-76
2021/06/07 04:19:32;;;;;;;8.15;4.13;;;;;;;17.70;62.33;102023.44;6239676;28;20220;-76
2021/06/07 04:22:36;;;;;;;7.25;4.28;;;;;;;17.77;62.25;102027.75;6241062;28;20224;-76
2021/06/07 04:25:40;;;;;;;4.55;4.10;;;;;;;17.72;61.98;102032.34;6240844;28;20192;-76
2021/06/07 04:28:51;;;;;;;7.55;4.47;;;;;;;17.83;61.31;102029.59;6240229;28;20190;-76
2021/06/07 04:31:54;;;;;;;7.13;4.13;;;;;;;17.90;60.52;102035.00;6239261;28;20209;-75
2021/06/07 04:35:00;;;;;;;6.47;4.50;;;;;;;17.83;61.64;102034.25;6239882;28;20324;-75
2021/06/07 04:38:05;;;;;;;9.30;4.72;;;;;;;17.95;61.28;102032.41;6240448;28;20293;-75
2021/06/07 04:41:12;;;;;;;12.10;4.80;;;;;;;17.90;63.87;102029.47;6240414;28;20185;-75
2021/06/07 04:44:18;;;;;;;4.82;4.40;;;;;;;17.99;61.70;102023.41;6240089;28;20201;-76
2021/06/07 04:47:22;;;;;;;7.88;4.93;;;;;;;17.99;61.97;102030.84;6240406;28;20196;-76
2021/06/07 04:50:28;;;;;;;12.27;4.40;;;;;;;18.16;60.98;102029.03;6240054;28;20252;-76
2021/06/07 04:53:32;;;;;;;10.00;5.00;;;;;;;18.21;61.57;102031.94;6239125;28;20277;-75
2021/06/07 04:56:37;;;;;;;10.68;4.50;;;;;;;18.25;60.44;102033.16;6238593;28;20248;-75
2021/06/07 04:59:42;;;;;;;7.50;4.60;;;;;;;18.31;60.35;102031.38;6239328;28;20241;-75
2021/06/07 05:02:45;;;;;;;9.07;5.47;;;;;;;18.28;61.61;102027.16;6239656;28;20186;-75
2021/06/07 05:05:49;;;;;;;9.45;4.55;;;;;;;18.40;61.62;102029.91;6239955;28;20185;-75
2021/06/07 05:08:53;;;;;;;6.07;4.80;;;;;;;18.38;59.96;102021.88;6240171;28;20297;-75
2021/06/07 05:11:56;;;;;;;17.60;5.32;;;;;;;18.52;59.88;102025.25;6238419;28;20495;-78
2021/06/07 05:15:02;;;;;;;7.35;5.78;;;;;;;18.54;62.26;102032.22;6239992;28;20186;-76
2021/06/07 05:18:06;;;;;;;10.10;5.60;;;;;;;18.69;62.46;102034.50;6238731;28;20217;-76
2021/06/07 05:21:11;;;;;;;5.80;5.32;;;;;;;19.09;59.18;102040.06;6240243;28;20240;-76
2021/06/07 05:24:15;;;;;;;10.27;5.55;;;;;;;19.55;58.82;102028.03;6240444;28;20257;-76
2021/06/07 05:27:18;;;;;;;5.72;5.22;;;;;;;19.92;57.03;102021.81;6254452;28;20201;-76
2021/06/07 05:30:25;;;;;;;6.68;4.95;;;;;;;20.13;55.61;102027.72;6238373;28;20519;-76
2021/06/07 05:33:30;;;;;;;6.93;5.35;;;;;;;20.39;56.62;102035.38;6239173;28;20237;-76
2021/06/07 05:36:34;;;;;;;10.23;5.45;;;;;;;20.54;54.73;102032.84;6239119;28;20208;-76
2021/06/07 05:39:39;;;;;;;12.07;6.18;;;;;;;20.68;56.63;102025.81;6239045;28;20213;-77
2021/06/07 05:42:43;;;;;;;6.40;5.28;;;;;;;20.73;57.32;102025.91;6254213;28;20247;-76
2021/06/07 05:45:47;;;;;;;9.50;5.40;;;;;;;20.73;55.28;102023.13;6237896;28;20433;-76
2021/06/07 05:48:52;;;;;;;6.35;5.63;;;;;;;20.89;57.42;102035.28;6238901;28;20296;-76
2021/06/07 05:51:56;;;;;;;11.15;5.95;;;;;;;21.05;56.07;102034.38;6237729;28;20476;-76
2021/06/07 05:54:59;;;;;;;7.10;5.55;;;;;;;21.08;53.40;102029.16;6238861;28;20209;-76
2021/06/07 05:58:06;;;;;;;12.45;5.32;;;;;;;21.10;57.12;102035.31;6239090;28;20213;-76
2021/06/07 06:01:11;;;;;;;7.97;4.90;;;;;;;21.26;53.31;102029.97;6238838;28;20271;-77
2021/06/07 06:04:15;;;;;;;11.20;5.80;;;;;;;21.35;54.59;102032.00;6237646;28;20477;-77
2021/06/07 06:07:18;;;;;;;6.00;5.53;;;;;;;21.41;52.14;102039.31;6238396;28;20495;-76
2021/06/07 06:10:22;;;;;;;6.28;5.65;;;;;;;21.46;53.95;102036.59;6238686;28;20236;-76
2021/06/07 06:13:26;;;;;;;6.00;5.55;;;;;;;21.50;53.90;102036.88;6238699;28;20195;-76
2021/06/07 06:16:31;;;;;;;6.07;5.50;;;;;;;21.61;52.48;102044.25;6238498;28;20209;-77
2021/06/07 06:19:35;;;;;;;7.25;5.63;;;;;;;21.57;52.88;102020.88;6237347;28;20217;-77
2021/06/07 06:22:39;;;;;;;9.80;5.90;;;;;;;21.65;51.65;102034.28;6237024;28;20531;-76
2021/06/07 06:25:43;;;;;;;9.70;5.93;;;;;;;21.80;51.85;102035.28;6231563;28;20260;-75
2021/06/07 06:28:47;;;;;;;12.55;5.78;;;;;;;21.94;54.65;102035.72;6237908;28;20235;-74
2021/06/07 06:31:53;;;;;;;7.30;5.80;;;;;;;22.02;52.72;102034.41;6236450;28;20744;-76
2021/06/07 06:34:56;;;;;;;12.90;5.55;;;;;;;22.03;52.68;102042.50;6236957;28;20243;-76
2021/06/07 06:38:00;;;;;;;5.32;5.03;;;;;;;22.06;52.81;102033.59;6237940;28;20252;-75
2021/06/07 06:41:05;;;;;;;8.52;5.22;;;;;;;22.13;52.43;102048.13;6238017;28;20185;-76
2021/06/07 06:44:10;;;;;;;6.00;5.10;;;;;;;22.22;50.29;102038.19;6236602;28;20483;-75
2021/06/07 06:47:15;;;;;;;5.80;5.28;;;;;;;22.26;51.08;102047.66;6236511;28;20185;-75
2021/06/07 06:50:19;;;;;;;6.03;5.63;;;;;;;22.34;50.63;102038.03;6236596;28;20389;-76
2021/06/07 06:53:24;;;;;;;5.60;5.00;;;;;;;22.33;48.84;102034.41;6237535;28;20217;-76
2021/06/07 06:56:28;;;;;;;5.88;5.20;;;;;;;22.41;50.57;102039.47;6237503;28;20197;-74
2021/06/07 06:59:32;;;;;;;6.28;4.80;;;;;;;22.50;49.82;102047.28;6236878;28;20209;-75
2021/06/07 07:02:38;;;;;;;6.07;5.10;;;;;;;22.54;50.04;102042.88;6237373;28;20730;-77
2021/06/07 07:05:42;;;;;;;5.18;4.78;;;;;;;22.62;48.33;102034.03;6236793;28;20185;-77
2021/06/07 07:08:46;;;;;;;12.48;5.07;;;;;;;22.65;49.21;102036.31;6237643;28;20190;-77
2021/06/07 07:11:50;;;;;;;8.02;5.07;;;;;;;22.74;49.24;102031.91;6238307;28;20192;-77
2021/06/07 07:14:55;;;;;;;5.75;4.90;;;;;;;22.76;48.86;102029.69;6236285;28;20217;-77
2021/06/07 07:18:00;;;;;;;6.35;5.13;;;;;;;22.86;49.52;102029.75;6237411;28;20257;-77
2021/06/07 07:21:04;;;;;;;6.80;5.40;;;;;;;22.94;48.79;102035.66;6237578;28;20208;-77
2021/06/07 07:24:10;;;;;;;6.22;5.40;;;;;;;22.91;48.80;102033.41;6236350;28;20468;-77
2021/06/07 07:27:15;;;;;;;6.03;5.35;;;;;;;23.02;50.15;102048.22;6237742;28;20192;-77
2021/06/07 07:30:26;;;;;;;5.85;5.38;;;;;;;23.04;50.60;102032.06;6236677;28;20272;-77
2021/06/07 07:33:36;;;;;;;6.28;5.40;;;;;;;23.09;49.10;102046.00;6237095;28;20287;-77
2021/06/07 07:36:40;;;;;;;5.07;4.78;;;;;;;23.14;50.66;102043.25;6236235;28;20510;-77
2021/06/07 07:39:44;;;;;;;6.50;5.25;;;;;;;23.22;49.16;102039.09;6237234;28;20213;-77
2021/06/07 07:42:49;;;;;;;5.30;5.00;;;;;;;23.26;49.49;102041.09;6239905;28;20526;-77
2021/06/07 07:45:52;;;;;;;5.25;4.85;;;;;;;23.27;49.50;102034.41;6241595;28;20232;-77
2021/06/07 07:48:57;;;;;;;5.90;5.40;;;;;;;23.33;49.48;102041.66;6240603;28;20500;-77
2021/06/07 07:52:02;;;;;;;6.68;5.40;;;;;;;23.38;49.42;102044.50;6240381;28;20518;-77
2021/06/07 07:55:06;;;;;;;9.68;5.70;;;;;;;23.43;49.42;102038.94;6240290;28;20208;-77
2021/06/07 07:58:11;;;;;;;8.30;5.72;;;;;;;23.51;49.35;102048.72;6242667;28;20190;-77
2021/06/07 08:01:15;;;;;;;6.55;5.20;;;;;;;23.56;49.23;102035.66;6241456;28;20377;-77
2021/06/07 08:04:20;;;;;;;15.27;5.97;;;;;;;23.54;49.90;102037.88;6242396;28;20186;-77
2021/06/07 08:07:24;;;;;;;6.22;5.82;;;;;;;23.57;49.71;102037.31;6242447;28;20193;-77
2021/06/07 08:10:29;;;;;;;8.43;5.75;;;;;;;23.68;50.40;102044.59;6242083;28;20212;-77
2021/06/07 08:13:33;;;;;;;8.85;5.50;;;;;;;23.72;50.07;102038.47;6241948;28;20192;-77
2021/06/07 08:16:36;;;;;;;13.65;5.82;;;;;;;23.79;50.46;102044.59;6241493;28;20217;-78
2021/06/07 08:19:41;;;;;;;8.80;5.32;;;;;;;23.81;49.57;102036.78;6243104;28;20209;-78
2021/06/07 08:22:49;;;;;;;8.45;5.80;;;;;;;23.77;49.34;102010.59;6241764;28;20189;-78
2021/06/07 08:25:53;;;;;;;5.85;5.32;;;;;;;23.90;49.30;102041.56;6242480;28;20224;-78
2021/06/07 08:28:57;;;;;;;12.77;5.78;;;;;;;23.85;47.61;102035.16;6241308;28;20189;-78
2021/06/07 08:32:01;;;;;;;7.25;5.70;;;;;;;23.88;49.07;102037.38;6242510;28;20213;-78
2021/06/07 08:35:10;;;;;;;5.80;5.35;;;;;;;23.81;47.10;102025.66;6241197;28;20229;-77
2021/06/07 08:38:16;;;;;;;7.90;5.57;;;;;;;23.91;49.39;102043.22;6240327;28;20186;-78
2021/06/07 08:41:19;;;;;;;5.80;5.35;;;;;;;23.87;48.81;102030.13;6240274;28;20221;-77
2021/06/07 08:44:24;;;;;;;5.47;4.97;;;;;;;23.89;49.17;102039.03;6239223;28;20189;-77
2021/06/07 08:47:29;;;;;;;5.82;5.32;;;;;;;23.89;48.07;102033.47;6240915;28;20186;-77
2021/06/07 08:50:34;;;;;;;5.97;5.32;;;;;;;23.88;47.37;102035.41;6240448;28;20228;-77
2021/06/07 08:53:38;;;;;;;6.07;5.43;;;;;;;23.81;47.78;102028.44;6240776;28;20314;-77
2021/06/07 08:56:43;;;;;;;5.90;5.47;;;;;;;23.87;47.83;102030.97;6240452;28;20185;-77
2021/06/07 08:59:46;;;;;;;5.53;5.20;;;;;;;23.85;45.06;102026.78;6240386;28;20247;-77
2021/06/07 09:02:59;;;;;;;8.48;5.18;;;;;;;23.90;46.70;102029.56;6240427;28;20233;-77
2021/06/07 09:06:06;;;;;;;5.70;4.93;;;;;;;23.90;45.12;102029.56;6239426;28;20355;-77
2021/06/07 09:09:11;;;;;;;5.60;5.30;;;;;;;23.89;45.91;102033.47;6239890;28;20228;-77
2021/06/07 09:12:22;;;;;;;7.00;5.13;;;;;;;23.94;47.08;102027.88;6238649;28;20478;-77
2021/06/07 09:15:35;;;;;;;5.68;5.30;;;;;;;23.93;46.35;102035.44;6238565;28;20333;-76
2021/06/07 09:18:40;;;;;;;5.88;5.38;;;;;;;23.93;45.60;102020.66;6238466;28;20186;-77
2021/06/07 09:21:45;;;;;;;5.72;5.32;;;;;;;23.95;45.53;102027.63;6239631;28;20210;-77
2021/06/07 09:25:08;;;;;;;6.13;5.07;;;;;;;23.98;43.58;102029.03;6239610;28;20189;-77
2021/06/07 09:28:14;;;;;;;7.20;4.82;;;;;;;23.98;44.46;102031.81;6239819;28;20186;-77
2021/06/07 09:31:26;;;;;;;6.10;5.38;;;;;;;23.99;45.24;102031.53;6240043;28;20190;-76
2021/06/07 09:34:31;;;;;;;5.75;5.35;;;;;;;24.05;44.14;102032.38;6239401;28;20237;-77
2021/06/07 09:37:37;;;;;;;6.60;5.05;;;;;;;24.14;43.63;102025.13;6253735;28;20378;-76
2021/06/07 09:40:40;;;;;;;6.03;5.05;;;;;;;24.17;42.65;102024.59;6238721;28;20275;-77
2021/06/07 09:43:50;;;;;;;4.88;4.47;;;;;;;24.09;44.18;102017.63;6238958;28;20269;-76
2021/06/07 09:47:17;;;;;;;4.97;4.25;;;;;;;24.18;41.67;102012.34;6237334;28;20420;-77
2021/06/07 09:50:22;;;;;;;5.72;5.15;;;;;;;24.21;41.02;102017.34;6239483;28;20228;-78
2021/06/07 09:53:48;;;;;;;6.25;4.80;;;;;;;24.18;42.15;102017.91;6239181;28;20231;-77
2021/06/07 09:56:53;;;;;;;4.60;4.50;;;;;;;24.14;41.72;102014.00;6240041;28;20235;-77
2021/06/07 09:59:57;;;;;;;4.45;3.67;;;;;;;24.01;36.91;101997.81;6238563;28;20583;-77
2021/06/07 10:03:15;;;;;;;5.50;3.80;;;;;;;24.19;37.29;102008.44;6238635;28;20216;-77
2021/06/07 10:06:24;;;;;;;9.88;4.65;;;;;;;24.21;39.67;102014.56;6237758;28;20429;-77
2021/06/07 10:09:30;;;;;;;5.05;4.65;;;;;;;24.28;40.63;102015.13;6238490;28;20531;-77
2021/06/07 10:12:34;;;;;;;6.80;4.80;;;;;;;24.39;40.17;102014.00;6238824;28;20192;-77
2021/06/07 10:15:40;;;;;;;4.53;4.32;;;;;;;24.33;39.28;102001.16;6238714;28;20186;-77
2021/06/07 10:18:44;;;;;;;4.32;4.10;;;;;;;24.26;39.30;101992.25;6238788;28;20186;-77
2021/06/07 10:21:49;;;;;;;6.90;4.35;;;;;;;24.38;39.45;102017.03;6238858;28;20273;-77
2021/06/07 10:24:53;;;;;;;4.72;4.53;;;;;;;24.31;40.21;102008.13;6238570;28;20272;-77
2021/06/07 10:27:57;;;;;;;4.53;4.22;;;;;;;24.31;38.38;101997.81;6238969;28;20265;-76
2021/06/07 10:31:10;;;;;;;4.43;4.22;;;;;;;24.49;39.69;102015.94;6238702;28;20264;-77
2021/06/07 10:34:14;;;;;;;4.50;4.10;;;;;;;24.43;39.17;102012.31;6237082;28;20244;-77
2021/06/07 10:37:18;;;;;;;4.55;4.30;;;;;;;24.48;39.20;102009.50;6238424;28;20257;-77
2021/06/07 10:40:26;;;;;;;4.90;4.60;;;;;;;24.52;38.89;102009.78;6237485;28;20514;-77
2021/06/07 10:43:42;;;;;;;7.53;4.22;;;;;;;24.48;39.80;102009.50;6236729;28;20220;-77
2021/06/07 10:46:46;;;;;;;5.25;4.45;;;;;;;24.53;38.52;102001.13;6238427;28;20190;-77
2021/06/07 10:49:56;;;;;;;9.48;4.38;;;;;;;24.71;36.68;102003.31;6238905;28;20189;-77
2021/06/07 10:53:02;;;;;;;3.90;3.60;;;;;;;24.65;37.74;102001.66;6237591;28;20280;-77
2021/06/07 10:56:09;;;;;;;4.63;4.22;;;;;;;24.65;37.62;101986.88;6238665;28;20216;-77
2021/06/07 10:59:14;;;;;;;4.35;4.20;;;;;;;24.76;36.62;102000.50;6236589;28;20499;-77
2021/06/07 11:02:20;;;;;;;3.30;3.10;;;;;;;24.74;34.58;101980.44;6237598;28;20268;-77
2021/06/07 11:05:26;;;;;;;3.85;3.55;;;;;;;24.81;35.66;101992.16;6236378;28;20472;-77
2021/06/07 11:08:31;;;;;;;3.63;3.33;;;;;;;24.86;34.62;101996.88;6236956;28;20185;-77
2021/06/07 11:11:44;;;;;;;3.42;3.20;;;;;;;24.91;34.09;101991.25;6236277;28;20197;-77
2021/06/07 11:15:08;;;;;;;3.60;3.50;;;;;;;24.94;34.93;101990.69;6237438;28;20390;-77
2021/06/07 11:18:31;;;;;;;4.85;3.80;;;;;;;24.96;36.81;101987.66;6242720;28;20186;-77
2021/06/07 11:21:37;;;;;;;4.40;3.88;;;;;;;24.91;36.00;101994.06;6243087;28;20259;-77
2021/06/07 11:24:42;;;;;;;8.43;3.92;;;;;;;24.99;35.45;101981.47;6242205;28;20434;-77
2021/06/07 11:27:56;;;;;;;13.15;3.78;;;;;;;25.12;37.27;101992.00;6241990;28;20233;-79
2021/06/07 11:31:01;;;;;;;4.60;4.20;;;;;;;25.05;35.90;101972.78;6243071;28;20193;-77
2021/06/07 11:34:06;;;;;;;5.53;3.90;;;;;;;25.08;36.65;101986.19;6242197;28;20255;-77
2021/06/07 11:37:13;;;;;;;4.18;3.97;;;;;;;25.10;36.09;101977.50;6243224;28;20190;-77
2021/06/07 11:40:38;;;;;;;5.57;4.13;;;;;;;25.09;36.63;101964.69;6242215;28;20209;-77
2021/06/07 11:43:56;;;;;;;6.90;3.58;;;;;;;25.25;34.97;101974.63;6242474;28;20186;-77
2021/06/07 11:46:59;;;;;;;4.35;3.83;;;;;;;25.26;35.78;101966.00;6243090;28;20232;-78
2021/06/07 11:50:10;;;;;;;6.60;3.65;;;;;;;25.32;35.48;101967.59;6241910;28;20410;-77
2021/06/07 11:53:16;;;;;;;10.57;4.50;;;;;;;25.40;38.60;101974.53;6242139;28;20185;-77
2021/06/07 11:56:22;;;;;;;5.72;4.10;;;;;;;25.45;38.47;101971.72;6243327;28;20208;-78
2021/06/07 11:59:29;;;;;;;5.50;5.10;;;;;;;25.47;40.64;101969.53;6242414;28;20544;-78
2021/06/07 12:02:33;;;;;;;4.85;4.65;;;;;;;25.41;39.97;101965.06;6244280;28;20232;-78
2021/06/07 12:05:37;;;;;;;5.20;4.90;;;;;;;25.52;39.72;101969.50;6243810;28;20185;-78
2021/06/07 12:08:41;;;;;;;6.28;5.70;;;;;;;25.65;39.69;101968.84;6243617;28;20185;-78
2021/06/07 12:11:46;;;;;;;5.57;4.75;;;;;;;25.68;40.42;101971.03;6242593;28;20217;-78
2021/06/07 12:14:51;;;;;;;4.65;4.45;;;;;;;25.73;39.58;101954.22;6243671;28;20186;-78
2021/06/07 12:17:56;;;;;;;5.13;4.90;;;;;;;25.78;40.18;101962.56;6242279;28;20239;-78
2021/06/07 12:21:02;;;;;;;9.02;4.78;;;;;;;25.77;40.36;101966.50;6243167;28;20213;-78
2021/06/07 12:24:08;;;;;;;5.28;4.82;;;;;;;25.83;40.83;101964.50;6243095;28;20186;-78
2021/06/07 12:30:36;;;;;;;5.38;4.63;;;;;;;25.64;41.34;101936.44;6241958;28;20196;-77
2021/06/07 12:33:41;;;;;;;5.13;4.90;;;;;;;25.78;41.10;101962.56;6239930;28;20245;-77
2021/06/07 12:36:45;;;;;;;5.10;4.72;;;;;;;25.78;42.06;101959.78;6241344;28;20221;-77
2021/06/07 12:39:48;;;;;;;5.40;4.90;;;;;;;25.69;41.76;101953.16;6242101;28;20232;-78
2021/06/07 12:42:55;;;;;;;5.60;5.30;;;;;;;25.68;41.10;101962.66;6241591;28;20236;-77
2021/06/07 12:46:03;;;;;;;4.95;4.70;;;;;;;25.53;41.43;101943.19;6241524;28;20209;-77
2021/06/07 12:49:12;;;;;;;5.68;5.25;;;;;;;25.57;41.52;101961.06;6242193;28;20209;-79
2021/06/07 12:52:16;;;;;;;6.22;4.97;;;;;;;25.66;41.85;101964.91;6239516;28;20500;-77
2021/06/07 12:55:23;;;;;;;6.88;4.90;;;;;;;25.40;42.33;101960.56;6240606;28;20185;-77
2021/06/07 12:58:27;;;;;;;5.57;5.25;;;;;;;25.36;42.47;101965.09;6241407;28;20379;-77
2021/06/07 13:01:37;;;;;;;5.55;5.05;;;;;;;25.47;42.43;101966.72;6239637;28;20408;-77
2021/06/07 13:04:41;;;;;;;6.97;5.35;;;;;;;25.54;43.00;101953.25;6240599;28;20185;-77
2021/06/07 13:08:12;;;;;;;6.90;5.35;;;;;;;25.57;43.38;101966.66;6241041;28;20236;-78
2021/06/07 13:11:17;;;;;;;6.32;5.80;;;;;;;25.45;44.77;101952.16;6240383;28;20221;-77
2021/06/07 13:14:23;;;;;;;9.65;5.90;;;;;;;25.40;44.21;101960.56;6239985;28;20233;-76
2021/06/07 13:17:28;;;;;;;7.25;5.90;;;;;;;25.38;44.91;101968.41;6239528;28;20249;-76
2021/06/07 13:20:32;;;;;;;7.82;5.57;;;;;;;25.18;45.01;101971.34;6239777;28;20217;-76
2021/06/07 13:23:39;;;;;;;6.10;5.90;;;;;;;25.11;45.51;101970.81;6239214;28;20185;-76
2021/06/07 13:26:47;;;;;;;10.57;5.70;;;;;;;25.13;46.15;101979.75;6240053;28;20225;-77
2021/06/07 13:29:52;;;;;;;7.25;5.78;;;;;;;25.07;46.77;101978.09;6239912;28;20456;-77
2021/06/07 13:32:57;;;;;;;11.77;6.10;;;;;;;24.86;46.64;101967.00;6239412;28;20205;-76
2021/06/07 13:36:03;;;;;;;9.18;6.30;;;;;;;24.88;46.78;101978.72;6241871;28;20248;-77
2021/06/07 13:39:07;;;;;;;9.95;5.93;;;;;;;24.82;48.02;101979.88;6241559;28;20192;-77
2021/06/07 13:42:12;;;;;;;7.45;6.50;;;;;;;24.71;48.45;101980.16;6240426;28;20244;-77
2021/06/07 13:45:18;;;;;;;7.25;6.53;;;;;;;24.67;49.27;101977.09;6240181;28;20185;-78
2021/06/07 13:48:25;;;;;;;17.02;6.80;;;;;;;24.65;50.06;101981.31;6241081;28;20225;-77
2021/06/07 13:51:33;;;;;;;10.65;7.25;;;;;;;24.44;49.03;101986.09;6240119;28;20196;-77
2021/06/07 13:54:53;;;;;;;8.32;7.63;;;;;;;24.46;50.38;101978.28;6238344;28;20328;-77
2021/06/07 13:58:15;;;;;;;8.13;6.10;;;;;;;24.47;49.56;101977.16;6238614;28;20240;-77
2021/06/07 14:01:21;;;;;;;9.13;6.00;;;;;;;24.20;47.79;101973.84;6238268;28;20213;-76
2021/06/07 14:04:27;;;;;;;5.65;5.15;;;;;;;24.25;48.45;101974.69;6237626;28;20378;-76
2021/06/07 14:07:31;;;;;;;5.60;5.30;;;;;;;24.09;48.73;101973.00;6238741;28;20185;-77
2021/06/07 14:10:35;;;;;;;;;;;;;;;24.10;48.86;101982.22;6239076;28;20224;-76
2021/06/07 14:13:38;;;;;;;;;;;;;;;24.14;48.81;101969.38;6239124;28;20040;-77
2021/06/07 14:16:41;;;;;;;;;;;;;;;24.18;49.83;101964.94;6238936;28;19917;-77
2021/06/07 14:19:46;;;;;;;;;;;;;;;24.18;48.98;101959.34;6239162;28;19960;-76
2021/06/07 14:26:23;;;;;;;;;;;;;;;23.87;50.37;101952.09;6238202;28;20378;-77
2021/06/07 14:29:26;;;;;;;;;;;;;;;23.87;52.53;101957.66;6239045;28;19963;-77
2021/06/07 14:32:30;;;;;;;;;;;;;;;23.78;54.54;101948.19;6238079;28;20176;-77